createdAt,value
2018-05-02T00:00:32.233Z,87.02
2018-05-02T00:01:38.202Z,87.51
2018-05-02T00:02:44.488Z,87.26
2018-05-02T00:03:50.861Z,89.00
2018-05-02T00:04:56.831Z,87.98
2018-05-02T00:06:03.071Z,86.51
2018-05-02T00:07:14.785Z,85.35
2018-05-02T00:08:23.055Z,85.17
2018-05-02T00:09:29.770Z,83.86
2018-05-02T00:10:35.308Z,84.55
2018-05-02T00:11:41.856Z,86.08
2018-05-02T00:12:48.195Z,87.13
2018-05-02T00:13:54.463Z,88.02
2018-05-02T00:15:00.703Z,88.01
2018-05-02T00:16:06.707Z,88.61
2018-05-02T00:17:13.038Z,88.61
2018-05-02T00:18:19.264Z,88.83
2018-05-02T00:19:26.174Z,87.94
2018-05-02T00:20:32.567Z,86.98
2018-05-02T00:21:38.775Z,88.27
2018-05-02T00:22:45.087Z,87.59
2018-05-02T00:23:51.345Z,86.85
2018-05-02T00:24:57.614Z,86.97
2018-05-02T00:26:03.940Z,88.48
2018-05-02T00:27:10.231Z,88.36
2018-05-02T00:28:16.515Z,87.24
2018-05-02T00:29:24.517Z,86.56
2018-05-02T00:30:30.688Z,87.19
2018-05-02T00:31:37.103Z,87.66
2018-05-02T00:32:44.627Z,87.30
2018-05-02T00:33:51.757Z,86.72
2018-05-02T00:34:58.243Z,86.54
2018-05-02T00:36:04.531Z,85.93
2018-05-02T00:37:10.879Z,86.08
2018-05-02T00:38:17.747Z,85.93
2018-05-02T00:39:23.971Z,86.26
2018-05-02T00:40:30.163Z,86.45
2018-05-02T00:41:42.315Z,87.33
2018-05-02T00:42:51.488Z,88.36
2018-05-02T00:43:57.720Z,87.33
2018-05-02T00:45:04.575Z,88.82
2018-05-02T00:46:10.839Z,89.12
2018-05-02T00:47:17.020Z,89.19
2018-05-02T00:48:23.986Z,90.42
2018-05-02T00:49:30.252Z,90.25
2018-05-02T00:50:36.163Z,89.75
2018-05-02T00:51:42.504Z,89.61
2018-05-02T00:52:48.702Z,89.77
2018-05-02T00:53:55.012Z,89.52
2018-05-02T00:55:01.250Z,89.70
2018-05-02T00:56:07.543Z,88.98
2018-05-02T00:57:13.747Z,88.63
2018-05-02T00:58:19.756Z,89.55
2018-05-02T00:59:26.291Z,89.48
2018-05-02T01:00:32.514Z,89.59
2018-05-02T01:01:37.646Z,90.48
2018-05-02T01:02:43.879Z,90.07
2018-05-02T01:03:49.802Z,90.57
2018-05-02T01:04:56.014Z,89.10
2018-05-02T01:06:02.283Z,88.84
2018-05-02T01:07:08.495Z,89.08
2018-05-02T01:08:15.682Z,89.58
2018-05-02T01:09:22.023Z,90.30
2018-05-02T01:10:28.283Z,90.03
2018-05-02T01:11:34.497Z,89.41
2018-05-02T01:12:41.265Z,90.15
2018-05-02T01:13:47.481Z,90.17
2018-05-02T01:14:53.742Z,90.47
2018-05-02T01:15:59.507Z,90.15
2018-05-02T01:17:05.718Z,91.44
2018-05-02T01:18:11.631Z,92.22
2018-05-02T01:19:18.519Z,92.11
2018-05-02T01:20:24.738Z,91.98
2018-05-02T01:21:30.973Z,93.35
2018-05-02T01:22:37.158Z,92.20
2018-05-02T01:23:43.054Z,91.58
2018-05-02T01:24:50.001Z,91.25
2018-05-02T01:25:56.221Z,91.69
2018-05-02T01:27:02.642Z,90.98
2018-05-02T01:28:08.866Z,90.16
2018-05-02T01:29:14.920Z,90.33
2018-05-02T01:30:21.268Z,91.24
2018-05-02T01:31:27.466Z,90.51
2018-05-02T01:32:33.439Z,89.89
2018-05-02T01:33:39.711Z,91.16
2018-05-02T01:34:46.031Z,91.29
2018-05-02T01:35:52.375Z,91.08
2018-05-02T01:36:58.692Z,91.41
2018-05-02T01:38:04.934Z,91.44
2018-05-02T01:39:11.141Z,91.59
2018-05-02T01:40:18.291Z,91.56
2018-05-02T01:41:24.474Z,91.64
2018-05-02T01:42:30.670Z,91.77
2018-05-02T01:43:36.924Z,91.90
2018-05-02T01:44:43.145Z,91.38
2018-05-02T01:45:49.066Z,91.27
2018-05-02T01:46:55.397Z,91.88
2018-05-02T01:48:01.675Z,93.34
2018-05-02T01:49:19.055Z,93.00
2018-05-02T01:50:25.019Z,91.77
2018-05-02T01:51:31.183Z,92.81
2018-05-02T01:52:37.432Z,93.30
2018-05-02T01:53:43.633Z,94.24
2018-05-02T01:54:49.869Z,94.16
2018-05-02T01:55:56.142Z,94.79
2018-05-02T01:57:02.500Z,94.42
2018-05-02T01:58:08.846Z,93.21
2018-05-02T01:59:15.132Z,93.75
2018-05-02T02:00:21.411Z,92.93
2018-05-02T02:01:27.957Z,93.10
2018-05-02T02:02:34.197Z,92.67
2018-05-02T02:03:40.446Z,92.67
2018-05-02T02:04:46.710Z,94.96
2018-05-02T02:05:52.663Z,96.04
2018-05-02T02:06:58.554Z,95.75
2018-05-02T02:08:05.637Z,95.97
2018-05-02T02:09:11.588Z,94.75
2018-05-02T02:10:17.903Z,94.52
2018-05-02T02:11:24.820Z,93.63
2018-05-02T02:12:31.039Z,92.76
2018-05-02T02:13:37.217Z,91.46
2018-05-02T02:14:43.229Z,92.51
2018-05-02T02:15:56.119Z,92.81
2018-05-02T02:17:02.322Z,93.13
2018-05-02T02:18:08.606Z,92.56
2018-05-02T02:19:14.457Z,93.64
2018-05-02T02:20:21.965Z,93.32
2018-05-02T02:21:28.110Z,94.35
2018-05-02T02:22:34.073Z,94.04
2018-05-02T02:23:40.269Z,94.28
2018-05-02T02:24:46.529Z,94.30
2018-05-02T02:25:53.014Z,95.04
2018-05-02T02:26:59.172Z,95.40
2018-05-02T02:28:05.071Z,95.14
2018-05-02T02:29:11.447Z,94.89
2018-05-02T02:30:17.693Z,93.94
2018-05-02T02:31:25.317Z,93.72
2018-05-02T02:32:31.757Z,95.25
2018-05-02T02:33:38.031Z,94.45
2018-05-02T02:34:43.881Z,93.54
2018-05-02T02:35:50.159Z,93.48
2018-05-02T02:37:02.430Z,93.63
2018-05-02T02:38:08.639Z,93.26
2018-05-02T02:39:14.953Z,93.48
2018-05-02T02:40:21.218Z,94.02
2018-05-02T02:41:27.446Z,93.99
2018-05-02T02:42:33.733Z,94.60
2018-05-02T02:43:39.938Z,94.79
2018-05-02T02:44:46.331Z,95.19
2018-05-02T02:45:52.603Z,95.07
2018-05-02T02:46:59.506Z,93.92
2018-05-02T02:48:05.855Z,94.11
2018-05-02T02:49:11.803Z,94.27
2018-05-02T02:50:18.094Z,94.26
2018-05-02T02:51:24.349Z,94.91
2018-05-02T02:52:30.649Z,95.25
2018-05-02T02:53:36.846Z,95.81
2018-05-02T02:54:42.907Z,95.79
2018-05-02T02:55:49.179Z,94.96
2018-05-02T02:56:55.368Z,94.47
2018-05-02T02:58:01.623Z,95.46
2018-05-02T02:59:07.930Z,95.23
2018-05-02T03:00:14.187Z,95.50
2018-05-02T03:01:20.515Z,95.67
2018-05-02T03:02:27.575Z,96.30
2018-05-02T03:03:34.474Z,96.40
2018-05-02T03:04:40.699Z,96.15
2018-05-02T03:05:47.493Z,96.47
2018-05-02T03:06:53.718Z,94.55
2018-05-02T03:08:00.053Z,94.55
2018-05-02T03:09:06.547Z,95.26
2018-05-02T03:10:12.801Z,95.28
2018-05-02T03:11:20.925Z,95.32
2018-05-02T03:12:27.095Z,95.88
2018-05-02T03:13:33.424Z,96.02
2018-05-02T03:14:40.248Z,95.41
2018-05-02T03:15:46.821Z,96.50
2018-05-02T03:16:52.992Z,96.36
2018-05-02T03:17:59.370Z,96.95
2018-05-02T03:19:11.294Z,97.68
2018-05-02T03:20:17.463Z,98.17
2018-05-02T03:21:23.659Z,98.69
2018-05-02T03:22:29.981Z,98.96
2018-05-02T03:23:36.151Z,98.96
2018-05-02T03:24:42.607Z,98.40
2018-05-02T03:25:48.947Z,98.46
2018-05-02T03:26:55.363Z,98.35
2018-05-02T03:28:01.865Z,98.16
2018-05-02T03:29:08.147Z,98.14
2018-05-02T03:30:15.874Z,97.25
2018-05-02T03:31:22.171Z,97.16
2018-05-02T03:32:28.432Z,97.31
2018-05-02T03:33:34.685Z,97.06
2018-05-02T03:34:41.675Z,97.33
2018-05-02T03:35:47.934Z,97.64
2018-05-02T03:36:54.184Z,98.09
2018-05-02T03:38:00.143Z,98.17
2018-05-02T03:39:05.655Z,98.41
2018-05-02T03:40:13.293Z,98.92
2018-05-02T03:41:19.584Z,99.27
2018-05-02T03:42:25.819Z,99.48
2018-05-02T03:43:32.218Z,99.72
2018-05-02T03:44:38.457Z,99.75
2018-05-02T03:45:44.682Z,98.09
2018-05-02T03:46:50.890Z,97.06
2018-05-02T03:47:56.916Z,96.31
2018-05-02T03:49:03.227Z,96.39
2018-05-02T03:50:09.255Z,96.56
2018-05-02T03:51:15.175Z,97.74
2018-05-02T03:52:21.374Z,97.92
2018-05-02T03:53:27.934Z,97.02
2018-05-02T03:54:34.774Z,97.17
2018-05-02T03:55:41.547Z,97.12
2018-05-02T03:56:47.776Z,96.90
2018-05-02T03:57:54.063Z,95.49
2018-05-02T03:59:00.331Z,94.75
2018-05-02T04:00:17.710Z,95.36
2018-05-02T04:01:34.741Z,94.79
2018-05-02T04:02:52.055Z,95.67
2018-05-02T04:04:10.133Z,96.51
2018-05-02T04:05:28.112Z,97.53
2018-05-02T04:06:48.141Z,97.28
2018-05-02T04:07:55.320Z,97.88
2018-05-02T04:09:03.016Z,97.29
2018-05-02T04:10:09.941Z,97.03
2018-05-02T04:11:17.784Z,97.79
2018-05-02T04:12:25.856Z,97.35
2018-05-02T04:13:32.153Z,97.93
2018-05-02T04:14:38.575Z,98.28
2018-05-02T04:15:45.876Z,97.87
2018-05-02T04:16:52.659Z,98.02
2018-05-02T04:17:58.957Z,98.01
2018-05-02T04:19:05.003Z,97.30
2018-05-02T04:20:12.346Z,96.88
2018-05-02T04:21:20.491Z,97.56
2018-05-02T04:22:27.627Z,96.77
2018-05-02T04:23:33.907Z,97.12
2018-05-02T04:24:40.129Z,97.36
2018-05-02T04:25:46.409Z,98.12
2018-05-02T04:26:52.639Z,97.71
2018-05-02T04:27:58.835Z,98.33
2018-05-02T04:29:05.075Z,97.33
2018-05-02T04:30:11.359Z,96.99
2018-05-02T04:31:17.763Z,96.44
2018-05-02T04:32:23.980Z,97.08
2018-05-02T04:33:30.162Z,97.63
2018-05-02T04:34:36.435Z,97.67
2018-05-02T04:36:23.970Z,98.24
2018-05-02T04:37:30.739Z,99.20
2018-05-02T04:38:36.963Z,99.40
2018-05-02T04:39:43.186Z,98.81
2018-05-02T04:40:49.375Z,97.69
2018-05-02T04:41:55.614Z,96.66
2018-05-02T04:43:02.390Z,97.74
2018-05-02T04:44:08.643Z,96.83
2018-05-02T04:45:15.420Z,95.87
2018-05-02T04:46:22.469Z,95.46
2018-05-02T04:47:29.464Z,94.85
2018-05-02T04:48:35.719Z,95.50
2018-05-02T04:49:42.044Z,95.34
2018-05-02T04:50:48.255Z,94.81
2018-05-02T04:51:54.440Z,95.48
2018-05-02T04:53:00.636Z,95.81
2018-05-02T04:54:06.537Z,96.98
2018-05-02T04:55:12.754Z,97.53
2018-05-02T04:56:18.965Z,96.63
2018-05-02T04:57:25.217Z,97.01
2018-05-02T04:58:32.076Z,96.33
2018-05-02T04:59:38.427Z,95.62
2018-05-02T05:00:45.484Z,96.04
2018-05-02T05:01:51.764Z,95.41
2018-05-02T05:02:58.006Z,94.12
2018-05-02T05:04:04.175Z,93.79
2018-05-02T05:05:10.431Z,93.38
2018-05-02T05:06:16.699Z,93.33
2018-05-02T05:07:23.051Z,93.09
2018-05-02T05:08:29.223Z,93.08
2018-05-02T05:09:35.450Z,93.31
2018-05-02T05:10:42.149Z,93.30
2018-05-02T05:11:48.423Z,92.93
2018-05-02T05:12:54.866Z,93.05
2018-05-02T05:14:01.182Z,93.76
2018-05-02T05:15:07.425Z,93.27
2018-05-02T05:16:13.951Z,94.40
2018-05-02T05:17:20.529Z,94.18
2018-05-02T05:18:26.912Z,93.08
2018-05-02T05:19:34.183Z,92.42
2018-05-02T05:20:41.133Z,91.34
2018-05-02T05:21:47.513Z,89.61
2018-05-02T05:22:54.172Z,89.36
2018-05-02T05:24:00.487Z,89.14
2018-05-02T05:25:06.706Z,88.15
2018-05-02T05:26:13.003Z,88.91
2018-05-02T05:27:19.775Z,88.48
2018-05-02T05:28:26.054Z,89.27
2018-05-02T05:29:32.591Z,88.58
2018-05-02T05:30:38.828Z,88.97
2018-05-02T05:31:45.046Z,88.36
2018-05-02T05:32:51.283Z,87.81
2018-05-02T05:33:57.510Z,86.83
2018-05-02T05:35:03.827Z,85.96
2018-05-02T05:36:10.095Z,86.18
2018-05-02T05:37:16.408Z,85.01
2018-05-02T05:38:23.386Z,85.21
2018-05-02T05:39:30.348Z,84.71
2018-05-02T05:40:36.664Z,84.71
2018-05-02T05:41:42.946Z,84.28
2018-05-02T05:42:49.361Z,84.74
2018-05-02T05:43:55.910Z,84.64
2018-05-02T05:45:02.669Z,84.69
2018-05-02T05:46:11.422Z,85.01
2018-05-02T05:47:17.582Z,85.70
2018-05-02T05:48:23.910Z,85.05
2018-05-02T05:49:30.170Z,85.69
2018-05-02T05:50:37.159Z,84.87
2018-05-02T05:51:43.394Z,85.00
2018-05-02T05:52:50.385Z,84.62
2018-05-02T05:53:57.432Z,86.13
2018-05-02T05:55:03.862Z,85.62
2018-05-02T05:56:09.761Z,85.81
2018-05-02T05:57:15.967Z,85.20
2018-05-02T05:58:22.208Z,85.11
2018-05-02T05:59:28.515Z,85.55
2018-05-02T06:00:34.787Z,85.18
2018-05-02T06:01:41.022Z,85.22
2018-05-02T06:02:48.011Z,85.82
2018-05-02T06:03:59.463Z,85.70
2018-05-02T06:05:05.771Z,85.68
2018-05-02T06:06:12.293Z,84.74
2018-05-02T06:07:18.487Z,84.90
2018-05-02T06:08:24.740Z,85.27
2018-05-02T06:09:31.440Z,85.47
2018-05-02T06:10:38.340Z,84.78
2018-05-02T06:11:44.568Z,82.92
2018-05-02T06:12:50.878Z,84.93
2018-05-02T06:13:57.302Z,83.70
2018-05-02T06:15:03.516Z,83.72
2018-05-02T06:16:09.531Z,82.52
2018-05-02T06:17:16.876Z,82.64
2018-05-02T06:18:23.571Z,81.82
2018-05-02T06:19:29.724Z,82.62
2018-05-02T06:20:36.003Z,83.16
2018-05-02T06:21:42.182Z,81.60
2018-05-02T06:22:48.643Z,81.50
2018-05-02T06:23:55.650Z,81.17
2018-05-02T06:25:01.615Z,81.78
2018-05-02T06:26:07.148Z,81.37
2018-05-02T06:27:13.740Z,82.34
2018-05-02T06:28:19.528Z,81.20
2018-05-02T06:29:26.510Z,80.50
2018-05-02T06:30:32.760Z,81.27
2018-05-02T06:31:39.095Z,81.79
2018-05-02T06:32:44.976Z,81.35
2018-05-02T06:33:51.228Z,80.16
2018-05-02T06:34:57.469Z,80.56
2018-05-02T06:36:03.733Z,81.56
2018-05-02T06:37:09.947Z,79.33
2018-05-02T06:38:16.715Z,79.87
2018-05-02T06:39:22.744Z,79.81
2018-05-02T06:40:28.987Z,79.59
2018-05-02T06:41:35.213Z,78.80
2018-05-02T06:42:42.143Z,78.36
2018-05-02T06:43:48.464Z,77.51
2018-05-02T06:44:54.761Z,78.42
2018-05-02T06:46:01.366Z,79.27
2018-05-02T06:47:07.766Z,79.72
2018-05-02T06:48:15.087Z,77.87
2018-05-02T06:49:22.199Z,79.36
2018-05-02T06:50:29.263Z,78.44
2018-05-02T06:51:35.456Z,77.90
2018-05-02T06:52:42.536Z,78.19
2018-05-02T06:53:48.897Z,76.19
2018-05-02T06:54:55.058Z,77.16
2018-05-02T06:56:05.992Z,77.86
2018-05-02T06:57:12.262Z,76.22
2018-05-02T06:58:18.469Z,77.12
2018-05-02T06:59:24.674Z,77.12
2018-05-02T07:00:30.870Z,76.76
2018-05-02T07:01:37.203Z,78.68
2018-05-02T07:02:43.548Z,77.09
2018-05-02T07:03:49.710Z,77.09
2018-05-02T07:04:55.963Z,76.59
2018-05-02T07:06:02.176Z,77.41
2018-05-02T07:07:08.525Z,76.69
2018-05-02T07:08:14.625Z,74.82
2018-05-02T07:09:20.883Z,76.19
2018-05-02T07:10:27.196Z,74.66
2018-05-02T07:11:33.498Z,73.71
2018-05-02T07:12:39.720Z,74.02
2018-05-02T07:13:45.908Z,73.91
2018-05-02T07:14:52.226Z,73.88
2018-05-02T07:15:58.431Z,73.90
2018-05-02T07:17:04.998Z,75.25
2018-05-02T07:18:11.755Z,73.39
2018-05-02T07:19:18.034Z,74.85
2018-05-02T07:20:24.297Z,73.46
2018-05-02T07:21:30.504Z,73.96
2018-05-02T07:22:36.816Z,74.39
2018-05-02T07:23:43.119Z,73.44
2018-05-02T07:24:49.009Z,72.81
2018-05-02T07:25:55.236Z,71.69
2018-05-02T07:27:01.455Z,72.46
2018-05-02T07:28:07.756Z,72.03
2018-05-02T07:29:13.988Z,71.09
2018-05-02T07:30:20.280Z,71.30
2018-05-02T07:31:26.471Z,72.68
2018-05-02T07:32:32.765Z,70.38
2018-05-02T07:33:39.109Z,70.16
2018-05-02T07:34:45.331Z,69.89
2018-05-02T07:35:51.557Z,68.12
2018-05-02T07:36:57.760Z,68.94
2018-05-02T07:38:03.626Z,67.77
2018-05-02T07:39:10.004Z,67.68
2018-05-02T07:40:16.293Z,67.60
2018-05-02T07:41:22.558Z,66.99
2018-05-02T07:42:28.780Z,70.04
2018-05-02T07:43:35.134Z,68.81
2018-05-02T07:44:41.445Z,66.48
2018-05-02T07:45:47.743Z,64.33
2018-05-02T07:46:54.063Z,64.54
2018-05-02T07:48:00.336Z,65.08
2018-05-02T07:49:06.580Z,64.11
2018-05-02T07:50:12.924Z,63.16
2018-05-02T07:51:19.207Z,62.39
2018-05-02T07:52:25.448Z,62.93
2018-05-02T07:53:33.190Z,63.83
2018-05-02T07:54:39.395Z,63.58
2018-05-02T07:55:45.643Z,62.20
2018-05-02T07:56:52.385Z,61.23
2018-05-02T07:57:58.281Z,62.62
2018-05-02T07:59:04.479Z,62.62
2018-05-02T08:00:10.380Z,62.72
2018-05-02T08:01:16.612Z,62.16
2018-05-02T08:02:22.828Z,61.76
2018-05-02T08:03:29.034Z,62.46
2018-05-02T08:04:35.267Z,62.60
2018-05-02T08:05:41.451Z,62.06
2018-05-02T08:06:47.607Z,62.59
2018-05-02T08:07:53.845Z,61.79
2018-05-02T08:09:00.763Z,62.05
2018-05-02T08:10:07.023Z,62.22
2018-05-02T08:11:13.420Z,62.04
2018-05-02T08:12:19.731Z,61.87
2018-05-02T08:13:25.946Z,62.45
2018-05-02T08:14:32.164Z,62.56
2018-05-02T08:15:38.666Z,62.19
2018-05-02T08:16:44.867Z,63.04
2018-05-02T08:17:51.083Z,62.52
2018-05-02T08:18:57.287Z,62.65
2018-05-02T08:20:03.532Z,63.02
2018-05-02T08:21:09.833Z,62.28
2018-05-02T08:22:15.793Z,62.98
2018-05-02T08:23:22.112Z,62.65
2018-05-02T08:24:28.324Z,62.23
2018-05-02T08:25:34.554Z,62.01
2018-05-02T08:26:40.742Z,61.77
2018-05-02T08:27:47.064Z,61.60
2018-05-02T08:28:53.280Z,61.42
2018-05-02T08:29:59.522Z,62.65
2018-05-02T08:31:05.388Z,62.48
2018-05-02T08:32:11.698Z,62.95
2018-05-02T08:33:17.910Z,63.33
2018-05-02T08:34:24.239Z,61.64
2018-05-02T08:35:30.582Z,62.41
2018-05-02T08:36:36.858Z,62.74
2018-05-02T08:37:43.622Z,61.47
2018-05-02T08:38:49.634Z,60.31
2018-05-02T08:39:55.781Z,62.34
2018-05-02T08:41:02.686Z,62.14
2018-05-02T08:42:08.901Z,62.02
2018-05-02T08:43:15.127Z,61.87
2018-05-02T08:44:21.347Z,62.37
2018-05-02T08:45:28.210Z,62.34
2018-05-02T08:46:34.834Z,62.12
2018-05-02T08:47:41.090Z,63.70
2018-05-02T08:48:47.614Z,62.22
2018-05-02T08:49:54.220Z,62.53
2018-05-02T08:51:00.747Z,62.39
2018-05-02T08:52:06.628Z,60.69
2018-05-02T08:53:12.855Z,62.94
2018-05-02T08:54:19.073Z,60.57
2018-05-02T08:55:25.303Z,60.90
2018-05-02T08:56:31.570Z,60.13
2018-05-02T08:57:37.809Z,60.21
2018-05-02T08:58:43.997Z,62.28
2018-05-02T08:59:50.243Z,59.01
2018-05-02T09:00:57.526Z,58.89
2018-05-02T09:02:04.246Z,57.22
2018-05-02T09:03:10.390Z,57.49
2018-05-02T09:04:16.790Z,57.91
2018-05-02T09:05:23.024Z,59.72
2018-05-02T09:06:29.346Z,59.61
2018-05-02T09:07:35.636Z,58.91
2018-05-02T09:08:41.840Z,58.38
2018-05-02T09:09:48.146Z,58.58
2018-05-02T09:10:55.268Z,58.08
2018-05-02T09:12:01.488Z,58.16
2018-05-02T09:13:07.690Z,57.52
2018-05-02T09:14:13.875Z,57.03
2018-05-02T09:15:21.716Z,56.61
2018-05-02T09:16:28.154Z,57.65
2018-05-02T09:17:35.146Z,56.29
2018-05-02T09:18:41.438Z,57.00
2018-05-02T09:19:47.595Z,57.85
2018-05-02T09:20:54.585Z,59.20
2018-05-02T09:22:00.919Z,57.68
2018-05-02T09:23:08.314Z,55.72
2018-05-02T09:24:15.485Z,55.42
2018-05-02T09:25:21.846Z,56.47
2018-05-02T09:26:28.093Z,56.38
2018-05-02T09:27:34.356Z,55.91
2018-05-02T09:28:40.576Z,55.06
2018-05-02T09:29:46.932Z,56.01
2018-05-02T09:30:53.233Z,55.72
2018-05-02T09:31:59.834Z,55.80
2018-05-02T09:33:06.101Z,55.33
2018-05-02T09:34:12.613Z,55.78
2018-05-02T09:35:18.978Z,55.28
2018-05-02T09:36:25.194Z,55.40
2018-05-02T09:37:31.493Z,56.67
2018-05-02T09:38:38.319Z,55.89
2018-05-02T09:39:45.472Z,55.55
2018-05-02T09:40:51.802Z,55.59
2018-05-02T09:41:58.171Z,55.04
2018-05-02T09:43:04.000Z,55.25
2018-05-02T09:44:10.317Z,54.13
2018-05-02T09:45:16.819Z,53.51
2018-05-02T09:46:22.760Z,54.18
2018-05-02T09:47:29.543Z,54.94
2018-05-02T09:48:35.811Z,54.70
2018-05-02T09:49:42.030Z,53.36
2018-05-02T09:50:48.263Z,53.00
2018-05-02T09:51:54.212Z,53.75
2018-05-02T09:53:01.331Z,53.92
2018-05-02T09:54:07.804Z,53.17
2018-05-02T09:55:13.999Z,53.52
2018-05-02T09:56:20.328Z,55.27
2018-05-02T09:57:29.973Z,55.57
2018-05-02T09:58:37.806Z,52.50
2018-05-02T09:59:44.089Z,53.32
2018-05-02T10:00:50.380Z,53.44
2018-05-02T10:01:56.627Z,50.89
2018-05-02T10:03:02.886Z,51.72
2018-05-02T10:04:09.205Z,52.48
2018-05-02T10:05:15.515Z,50.85
2018-05-02T10:06:21.739Z,50.58
2018-05-02T10:07:28.033Z,51.44
2018-05-02T10:08:35.715Z,50.64
2018-05-02T10:09:42.725Z,51.69
2018-05-02T10:10:49.015Z,51.12
2018-05-02T10:11:55.431Z,52.20
2018-05-02T10:13:01.630Z,49.86
2018-05-02T10:14:07.870Z,50.22
2018-05-02T10:15:14.201Z,51.21
2018-05-02T10:16:20.539Z,50.82
2018-05-02T10:17:26.796Z,49.16
2018-05-02T10:18:35.618Z,49.37
2018-05-02T10:19:47.767Z,49.33
2018-05-02T10:20:54.035Z,49.45
2018-05-02T10:22:00.322Z,49.85
2018-05-02T10:23:06.206Z,48.81
2018-05-02T10:24:13.204Z,49.96
2018-05-02T10:25:19.379Z,49.78
2018-05-02T10:26:24.787Z,49.23
2018-05-02T10:27:31.063Z,50.30
2018-05-02T10:28:37.291Z,49.62
2018-05-02T10:29:43.687Z,48.92
2018-05-02T10:30:49.919Z,49.89
2018-05-02T10:31:56.259Z,50.12
2018-05-02T10:33:02.538Z,50.65
2018-05-02T10:34:08.800Z,51.29
2018-05-02T10:35:14.959Z,51.75
2018-05-02T10:36:21.192Z,51.81
2018-05-02T10:37:27.499Z,52.46
2018-05-02T10:38:33.818Z,52.40
2018-05-02T10:39:40.776Z,52.44
2018-05-02T10:40:47.571Z,53.33
2018-05-02T10:41:53.866Z,52.64
2018-05-02T10:43:00.147Z,53.55
2018-05-02T10:44:06.341Z,53.12
2018-05-02T10:45:12.707Z,53.70
2018-05-02T10:46:19.063Z,54.85
2018-05-02T10:47:25.406Z,54.14
2018-05-02T10:48:31.602Z,55.29
2018-05-02T10:49:37.771Z,57.70
2018-05-02T10:50:44.016Z,54.73
2018-05-02T10:51:50.139Z,55.99
2018-05-02T10:52:56.372Z,55.47
2018-05-02T10:54:02.679Z,55.14
2018-05-02T10:55:08.975Z,55.92
2018-05-02T10:56:15.896Z,55.74
2018-05-02T10:57:22.122Z,55.21
2018-05-02T10:58:27.942Z,55.04
2018-05-02T10:59:34.252Z,54.55
2018-05-02T11:00:43.080Z,55.02
2018-05-02T11:01:54.011Z,54.62
2018-05-02T11:03:00.633Z,55.25
2018-05-02T11:04:06.913Z,55.72
2018-05-02T11:05:13.131Z,56.09
2018-05-02T11:06:19.895Z,55.63
2018-05-02T11:07:26.411Z,55.51
2018-05-02T11:08:32.709Z,55.49
2018-05-02T11:09:39.002Z,56.57
2018-05-02T11:10:45.216Z,55.74
2018-05-02T11:11:51.425Z,56.07
2018-05-02T11:12:57.654Z,56.20
2018-05-02T11:14:03.906Z,55.75
2018-05-02T11:15:10.183Z,55.80
2018-05-02T11:16:16.514Z,56.81
2018-05-02T11:17:22.791Z,55.56
2018-05-02T11:18:28.643Z,55.66
2018-05-02T11:19:35.351Z,56.16
2018-05-02T11:20:41.606Z,56.67
2018-05-02T11:21:52.761Z,57.95
2018-05-02T11:22:58.999Z,55.38
2018-05-02T11:24:05.268Z,55.42
2018-05-02T11:25:11.464Z,56.38
2018-05-02T11:26:17.696Z,56.52
2018-05-02T11:27:24.015Z,55.71
2018-05-02T11:28:30.387Z,56.88
2018-05-02T11:29:36.831Z,57.05
2018-05-02T11:30:43.037Z,55.68
2018-05-02T11:31:49.323Z,56.50
2018-05-02T11:32:55.661Z,55.14
2018-05-02T11:34:01.855Z,57.26
2018-05-02T11:35:08.063Z,55.29
2018-05-02T11:36:14.771Z,55.07
2018-05-02T11:37:21.024Z,56.21
2018-05-02T11:38:27.348Z,56.50
2018-05-02T11:39:33.629Z,55.00
2018-05-02T11:40:39.968Z,55.00
2018-05-02T11:41:46.761Z,55.21
2018-05-02T11:42:54.221Z,55.08
2018-05-02T11:44:00.400Z,55.90
2018-05-02T11:45:06.634Z,55.36
2018-05-02T11:46:12.890Z,54.73
2018-05-02T11:47:20.164Z,56.14
2018-05-02T11:48:26.388Z,54.54
2018-05-02T11:49:32.687Z,55.64
2018-05-02T11:50:38.901Z,53.37
2018-05-02T11:51:45.201Z,53.27
2018-05-02T11:52:51.435Z,55.32
2018-05-02T11:53:57.750Z,54.12
2018-05-02T11:55:03.706Z,54.36
2018-05-02T11:56:10.228Z,57.44
2018-05-02T11:57:23.771Z,53.81
2018-05-02T11:58:29.735Z,54.93
2018-05-02T11:59:36.072Z,55.71
2018-05-02T12:00:42.362Z,54.84
2018-05-02T12:01:48.567Z,56.80
2018-05-02T12:02:55.898Z,55.60
2018-05-02T12:04:01.796Z,56.52
2018-05-02T12:05:08.111Z,57.53
2018-05-02T12:06:14.653Z,56.26
2018-05-02T12:07:20.954Z,55.87
2018-05-02T12:08:27.279Z,55.35
2018-05-02T12:09:33.568Z,54.90
2018-05-02T12:10:40.511Z,56.52
2018-05-02T12:11:46.767Z,55.17
2018-05-02T12:12:53.289Z,56.58
2018-05-02T12:13:59.543Z,55.86
2018-05-02T12:15:05.844Z,55.62
2018-05-02T12:16:12.160Z,55.08
2018-05-02T12:17:18.683Z,54.70
2018-05-02T12:18:26.766Z,53.95
2018-05-02T12:19:33.649Z,55.43
2018-05-02T12:20:39.859Z,55.62
2018-05-02T12:21:46.203Z,55.66
2018-05-02T12:22:52.483Z,55.48
2018-05-02T12:23:58.929Z,56.31
2018-05-02T12:25:04.886Z,55.83
2018-05-02T12:26:11.132Z,57.70
2018-05-02T12:27:17.333Z,55.06
2018-05-02T12:28:23.544Z,55.11
2018-05-02T12:29:30.601Z,55.05
2018-05-02T12:30:37.358Z,55.39
2018-05-02T12:31:43.827Z,55.47
2018-05-02T12:32:50.194Z,55.52
2018-05-02T12:33:56.084Z,58.08
2018-05-02T12:35:03.152Z,54.92
2018-05-02T12:36:08.736Z,53.42
2018-05-02T12:37:14.965Z,54.25
2018-05-02T12:38:21.278Z,52.83
2018-05-02T12:39:27.583Z,54.29
2018-05-02T12:40:33.895Z,53.82
2018-05-02T12:41:40.126Z,53.78
2018-05-02T12:42:46.991Z,53.98
2018-05-02T12:43:54.010Z,53.93
2018-05-02T12:45:00.866Z,52.71
2018-05-02T12:46:07.122Z,52.58
2018-05-02T12:47:13.099Z,52.52
2018-05-02T12:48:19.404Z,54.09
2018-05-02T12:49:25.711Z,54.14
2018-05-02T12:50:31.909Z,54.51
2018-05-02T12:51:38.119Z,53.44
2018-05-02T12:52:44.339Z,53.68
2018-05-02T12:53:50.566Z,53.32
2018-05-02T12:54:57.975Z,53.39
2018-05-02T12:56:04.240Z,53.91
2018-05-02T12:57:10.607Z,53.78
2018-05-02T12:58:16.910Z,53.20
2018-05-02T12:59:23.246Z,56.02
2018-05-02T13:00:29.575Z,54.16
2018-05-02T13:01:36.078Z,54.75
2018-05-02T13:02:42.373Z,53.00
2018-05-02T13:03:48.575Z,54.63
2018-05-02T13:04:54.799Z,54.30
2018-05-02T13:06:01.914Z,53.83
2018-05-02T13:07:09.375Z,54.46
2018-05-02T13:08:15.669Z,53.64
2018-05-02T13:09:22.110Z,53.07
2018-05-02T13:10:29.031Z,53.31
2018-05-02T13:11:35.199Z,53.73
2018-05-02T13:12:41.516Z,54.27
2018-05-02T13:13:47.748Z,54.14
2018-05-02T13:14:53.964Z,53.79
2018-05-02T13:16:00.255Z,54.42
2018-05-02T13:17:06.515Z,55.25
2018-05-02T13:18:12.818Z,55.45
2018-05-02T13:19:19.115Z,54.48
2018-05-02T13:20:25.407Z,55.81
2018-05-02T13:21:31.681Z,55.52
2018-05-02T13:22:37.925Z,54.56
2018-05-02T13:23:44.178Z,53.74
2018-05-02T13:24:50.464Z,54.42
2018-05-02T13:25:57.436Z,55.30
2018-05-02T13:27:05.063Z,54.80
2018-05-02T13:28:11.416Z,55.12
2018-05-02T13:29:18.544Z,55.19
2018-05-02T13:30:24.803Z,57.50
2018-05-02T13:31:30.973Z,55.52
2018-05-02T13:32:37.245Z,55.66
2018-05-02T13:33:43.645Z,55.83
2018-05-02T13:34:49.959Z,56.49
2018-05-02T13:35:56.206Z,56.63
2018-05-02T13:37:02.510Z,57.64
2018-05-02T13:38:08.762Z,57.25
2018-05-02T13:39:15.053Z,55.83
2018-05-02T13:40:21.299Z,56.48
2018-05-02T13:41:27.738Z,55.58
2018-05-02T13:42:34.814Z,56.55
2018-05-02T13:43:40.999Z,56.78
2018-05-02T13:44:47.263Z,55.84
2018-05-02T13:45:53.231Z,55.78
2018-05-02T13:46:59.471Z,56.22
2018-05-02T13:48:05.173Z,55.72
2018-05-02T13:49:18.594Z,55.94
2018-05-02T13:50:25.006Z,56.70
2018-05-02T13:51:32.008Z,55.93
2018-05-02T13:52:38.260Z,56.36
2018-05-02T13:53:44.615Z,57.36
2018-05-02T13:54:50.939Z,58.49
2018-05-02T13:55:57.200Z,56.68
2018-05-02T13:57:03.421Z,57.47
2018-05-02T13:58:10.550Z,56.85
2018-05-02T13:59:16.787Z,57.86
2018-05-02T14:00:22.810Z,57.78
2018-05-02T14:01:29.074Z,56.67
2018-05-02T14:02:35.463Z,57.35
2018-05-02T14:03:42.616Z,58.27
2018-05-02T14:04:48.842Z,56.63
2018-05-02T14:05:56.108Z,57.01
2018-05-02T14:07:02.383Z,57.07
2018-05-02T14:08:08.322Z,56.88
2018-05-02T14:09:14.831Z,56.96
2018-05-02T14:10:21.763Z,56.73
2018-05-02T14:11:28.646Z,58.30
2018-05-02T14:12:34.883Z,56.63
2018-05-02T14:13:41.184Z,57.50
2018-05-02T14:14:47.740Z,56.53
2018-05-02T14:15:54.052Z,56.46
2018-05-02T14:17:00.263Z,57.58
2018-05-02T14:18:06.513Z,58.21